Time;durP1;ratioP1;P1;durP2;ratioP2;P2;SDS_P1;SDS_P2;PMS_P1;PMS_P2;Temp;Humidity;BMP_temperature;BMP_pressure;BME280_temperature;BME280_humidity;BME280_pressure;Samples;Min_cycle;Max_cycle;Signal;HPM_P1;HPM_P2
2022/03/09 00:00:08;;;;;;;32.25;20.08;;;;;;;;;;4949631;28;20074;-81
2022/03/09 00:02:34;;;;;;;33.67;20.15;;;;;;;;;;4964012;28;20045;-80
2022/03/09 00:05:00;;;;;;;32.50;19.42;;;;;;;;;;4947780;28;20066;-80
2022/03/09 00:07:27;;;;;;;30.02;18.58;;;;;;;;;;4951548;28;20039;-81
2022/03/09 00:09:53;;;;;;;30.08;18.00;;;;;;;;;;4963052;28;20070;-80
2022/03/09 00:12:19;;;;;;;29.23;18.58;;;;;;;;;;4949372;28;20453;-80
2022/03/09 00:14:45;;;;;;;27.85;18.35;;;;;;;;;;4938798;28;20047;-80
2022/03/09 00:17:10;;;;;;;34.45;19.63;;;;;;;;;;4930535;28;20551;-80
2022/03/09 00:19:36;;;;;;;29.45;17.67;;;;;;;;;;4938110;28;20063;-81
2022/03/09 00:22:02;;;;;;;30.20;18.48;;;;;;;;;;4963424;28;20129;-80
2022/03/09 00:24:28;;;;;;;29.05;19.48;;;;;;;;;;4937883;28;20134;-80
2022/03/09 00:26:53;;;;;;;33.78;20.15;;;;;;;;;;4946211;28;20134;-80
2022/03/09 00:29:19;;;;;;;26.05;18.20;;;;;;;;;;4944876;28;20067;-80
2022/03/09 00:31:45;;;;;;;32.70;19.85;;;;;;;;;;4948886;28;20038;-80
2022/03/09 00:34:11;;;;;;;29.83;18.48;;;;;;;;;;4948295;28;20666;-80
2022/03/09 00:36:36;;;;;;;26.85;15.95;;;;;;;;;;4934960;28;20506;-80
2022/03/09 00:39:02;;;;;;;27.10;16.88;;;;;;;;;;4931936;28;20073;-81
2022/03/09 00:41:29;;;;;;;28.65;17.33;;;;;;;;;;4949214;28;20050;-80
2022/03/09 00:43:54;;;;;;;29.33;17.27;;;;;;;;;;4959000;28;20088;-80
2022/03/09 00:46:20;;;;;;;29.10;17.55;;;;;;;;;;4939071;28;20063;-80
2022/03/09 00:48:46;;;;;;;25.67;16.67;;;;;;;;;;4947066;28;20058;-80
2022/03/09 00:51:12;;;;;;;26.70;16.00;;;;;;;;;;4965232;28;20102;-81
2022/03/09 00:53:38;;;;;;;30.15;16.88;;;;;;;;;;4948257;28;20062;-80
2022/03/09 00:56:04;;;;;;;28.77;16.98;;;;;;;;;;4949432;28;20106;-81
2022/03/09 00:58:30;;;;;;;32.28;18.90;;;;;;;;;;4946504;28;20590;-81
2022/03/09 01:00:56;;;;;;;31.70;18.58;;;;;;;;;;4931267;28;20047;-81
2022/03/09 01:03:22;;;;;;;31.45;18.73;;;;;;;;;;4945410;28;20399;-81
2022/03/09 01:05:47;;;;;;;31.80;19.02;;;;;;;;;;4949535;28;20089;-81
2022/03/09 01:08:13;;;;;;;29.65;18.23;;;;;;;;;;4964772;28;20121;-81
2022/03/09 01:10:39;;;;;;;28.88;17.88;;;;;;;;;;4956929;28;20586;-81
2022/03/09 01:13:05;;;;;;;28.13;17.27;;;;;;;;;;4951277;28;20051;-81
2022/03/09 01:15:31;;;;;;;29.95;18.20;;;;;;;;;;4951363;28;20043;-81
2022/03/09 01:17:57;;;;;;;28.88;16.83;;;;;;;;;;4948496;28;20038;-81
2022/03/09 01:20:23;;;;;;;32.30;17.13;;;;;;;;;;4945564;28;20041;-81
2022/03/09 01:22:49;;;;;;;29.77;17.05;;;;;;;;;;4941097;28;20117;-81
2022/03/09 01:25:15;;;;;;;29.75;17.27;;;;;;;;;;4948230;28;20058;-81
2022/03/09 01:27:40;;;;;;;29.20;16.88;;;;;;;;;;4933315;28;20050;-81
2022/03/09 01:30:08;;;;;;;28.38;17.65;;;;;;;;;;4954081;28;20053;-81
2022/03/09 01:32:34;;;;;;;28.77;16.83;;;;;;;;;;4960043;28;20513;-81
2022/03/09 01:34:59;;;;;;;29.63;17.02;;;;;;;;;;4932518;28;20054;-81
2022/03/09 01:37:25;;;;;;;27.10;17.17;;;;;;;;;;4950287;28;20038;-81
2022/03/09 01:39:51;;;;;;;32.05;18.45;;;;;;;;;;4960791;28;20067;-81
2022/03/09 01:42:17;;;;;;;30.83;17.75;;;;;;;;;;4964718;28;20239;-81
2022/03/09 01:44:43;;;;;;;33.38;17.75;;;;;;;;;;4947702;28;20047;-81
2022/03/09 01:47:09;;;;;;;25.48;17.13;;;;;;;;;;4952653;28;20045;-81
2022/03/09 01:49:36;;;;;;;30.85;18.45;;;;;;;;;;4928548;28;20039;-81
2022/03/09 01:52:03;;;;;;;30.35;18.40;;;;;;;;;;4954369;28;20524;-81
2022/03/09 01:54:30;;;;;;;25.42;16.55;;;;;;;;;;4962781;28;20043;-81
2022/03/09 01:56:56;;;;;;;27.48;17.42;;;;;;;;;;4927645;28;20032;-81
2022/03/09 01:59:22;;;;;;;28.08;17.30;;;;;;;;;;4943100;28;20468;-81
2022/03/09 02:01:48;;;;;;;27.92;16.88;;;;;;;;;;4959807;28;20156;-81
2022/03/09 02:04:14;;;;;;;29.30;17.77;;;;;;;;;;4935472;28;20058;-81
2022/03/09 02:06:40;;;;;;;31.67;17.08;;;;;;;;;;4936912;28;20068;-81
2022/03/09 02:11:53;;;;;;;31.38;17.83;;;;;;;;;;4941811;28;20061;-81
2022/03/09 02:14:38;;;;;;;26.92;16.77;;;;;;;;;;4959606;28;20066;-81
2022/03/09 02:17:10;;;;;;;28.42;17.00;;;;;;;;;;4967980;28;20065;-81
2022/03/09 02:19:37;;;;;;;30.95;15.93;;;;;;;;;;4954206;28;20078;-81
2022/03/09 02:22:06;;;;;;;33.65;17.40;;;;;;;;;;4943191;28;20475;-81
2022/03/09 02:24:33;;;;;;;30.02;17.42;;;;;;;;;;4952889;28;20492;-82
2022/03/09 02:26:58;;;;;;;31.00;19.27;;;;;;;;;;4937530;28;20500;-81
2022/03/09 02:29:24;;;;;;;31.75;19.90;;;;;;;;;;4944048;28;20050;-81
2022/03/09 02:31:50;;;;;;;30.77;19.67;;;;;;;;;;4949361;28;20047;-81
2022/03/09 02:34:15;;;;;;;36.92;20.70;;;;;;;;;;4931512;28;20058;-81
2022/03/09 02:36:41;;;;;;;37.33;20.02;;;;;;;;;;4948156;28;20062;-81
2022/03/09 02:39:07;;;;;;;33.05;20.75;;;;;;;;;;4947330;28;20050;-81
2022/03/09 02:41:33;;;;;;;34.65;20.52;;;;;;;;;;4949341;28;20133;-81
2022/03/09 02:44:03;;;;;;;33.28;20.48;;;;;;;;;;4947040;28;20469;-81
2022/03/09 02:46:29;;;;;;;30.70;20.00;;;;;;;;;;4945162;28;20038;-81
2022/03/09 02:48:55;;;;;;;32.70;19.83;;;;;;;;;;4934976;28;20035;-81
2022/03/09 02:51:22;;;;;;;28.70;18.13;;;;;;;;;;4930805;28;20049;-81
2022/03/09 02:53:48;;;;;;;33.15;18.63;;;;;;;;;;4928632;29;20470;-81
2022/03/09 02:56:15;;;;;;;29.88;15.65;;;;;;;;;;4955525;28;20035;-81
2022/03/09 02:58:40;;;;;;;28.77;15.95;;;;;;;;;;4954984;28;21529;-81
2022/03/09 03:01:07;;;;;;;30.00;18.30;;;;;;;;;;4949700;28;20572;-81
2022/03/09 03:03:33;;;;;;;29.05;18.15;;;;;;;;;;4946738;28;20055;-81
2022/03/09 03:05:59;;;;;;;30.27;18.77;;;;;;;;;;4950429;28;20222;-81
2022/03/09 03:08:25;;;;;;;28.80;17.02;;;;;;;;;;4967848;28;20179;-81
2022/03/09 03:10:50;;;;;;;29.00;17.88;;;;;;;;;;4966042;28;20072;-81
2022/03/09 03:13:16;;;;;;;28.77;17.00;;;;;;;;;;4945680;28;20101;-81
2022/03/09 03:15:42;;;;;;;24.52;16.30;;;;;;;;;;4967343;28;20132;-81
2022/03/09 03:18:07;;;;;;;21.95;13.88;;;;;;;;;;4938003;28;20067;-81
2022/03/09 03:20:34;;;;;;;24.27;14.43;;;;;;;;;;4953706;28;20120;-81
2022/03/09 03:22:59;;;;;;;22.42;13.38;;;;;;;;;;4951896;28;20051;-81
2022/03/09 03:25:25;;;;;;;22.13;14.18;;;;;;;;;;4939865;28;20456;-81
2022/03/09 03:27:51;;;;;;;24.48;14.02;;;;;;;;;;4957564;28;20047;-81
2022/03/09 03:30:16;;;;;;;24.42;13.73;;;;;;;;;;4943019;29;20701;-81
2022/03/09 03:32:42;;;;;;;23.55;12.88;;;;;;;;;;4934338;28;20195;-81
2022/03/09 03:35:08;;;;;;;21.05;12.95;;;;;;;;;;4967828;28;20070;-81
2022/03/09 03:37:34;;;;;;;18.13;13.10;;;;;;;;;;4943174;28;20122;-81
2022/03/09 03:40:00;;;;;;;21.42;11.55;;;;;;;;;;4959161;28;20049;-81
2022/03/09 03:42:26;;;;;;;19.27;12.00;;;;;;;;;;4939259;28;20043;-81
2022/03/09 03:44:51;;;;;;;20.33;12.65;;;;;;;;;;4953887;28;20067;-81
2022/03/09 03:47:17;;;;;;;19.38;12.25;;;;;;;;;;4950944;28;20098;-81
2022/03/09 03:49:43;;;;;;;21.77;12.57;;;;;;;;;;4934462;28;20503;-81
2022/03/09 03:52:09;;;;;;;22.15;12.05;;;;;;;;;;4950490;28;20054;-81
2022/03/09 03:54:34;;;;;;;19.48;12.02;;;;;;;;;;4963195;28;20418;-81
2022/03/09 03:57:00;;;;;;;20.85;12.73;;;;;;;;;;4946973;28;20086;-81
2022/03/09 03:59:26;;;;;;;18.73;12.50;;;;;;;;;;4961937;28;20098;-81
2022/03/09 04:01:51;;;;;;;20.90;12.90;;;;;;;;;;4935456;28;20116;-81
2022/03/09 04:04:17;;;;;;;17.70;11.48;;;;;;;;;;4954596;28;20098;-81
2022/03/09 04:06:43;;;;;;;21.67;13.10;;;;;;;;;;4961969;28;20511;-81
2022/03/09 04:09:08;;;;;;;21.05;13.18;;;;;;;;;;4954291;28;20046;-81
2022/03/09 04:11:34;;;;;;;22.10;12.57;;;;;;;;;;4944756;28;20453;-81
2022/03/09 04:14:00;;;;;;;15.13;10.77;;;;;;;;;;4936607;28;20063;-81
2022/03/09 04:16:25;;;;;;;19.77;12.02;;;;;;;;;;4952490;28;20118;-81
2022/03/09 04:18:51;;;;;;;19.65;12.43;;;;;;;;;;4942929;28;20595;-81
2022/03/09 04:21:17;;;;;;;18.52;12.00;;;;;;;;;;4961772;28;20817;-81
2022/03/09 04:23:43;;;;;;;18.83;10.80;;;;;;;;;;4960708;28;20066;-81
2022/03/09 04:26:10;;;;;;;16.50;11.68;;;;;;;;;;4979833;28;20042;-81
2022/03/09 04:28:36;;;;;;;19.20;11.63;;;;;;;;;;4933417;28;20047;-81
2022/03/09 04:31:01;;;;;;;19.00;11.10;;;;;;;;;;4951383;28;20058;-81
2022/03/09 04:33:27;;;;;;;19.95;11.35;;;;;;;;;;4945843;28;20048;-81
2022/03/09 04:35:53;;;;;;;17.50;10.25;;;;;;;;;;4952383;28;20129;-81
2022/03/09 04:38:18;;;;;;;17.77;10.57;;;;;;;;;;4959226;28;20328;-81
2022/03/09 04:40:44;;;;;;;18.33;10.18;;;;;;;;;;4962237;28;20369;-81
2022/03/09 04:43:10;;;;;;;13.00;8.82;;;;;;;;;;4931761;28;20098;-81
2022/03/09 04:45:35;;;;;;;16.35;10.00;;;;;;;;;;4970756;28;20094;-81
2022/03/09 04:48:01;;;;;;;17.67;10.70;;;;;;;;;;4994387;28;20070;-81
2022/03/09 04:50:27;;;;;;;16.00;11.20;;;;;;;;;;4946675;28;20043;-81
2022/03/09 04:52:53;;;;;;;17.42;10.38;;;;;;;;;;4940866;28;20055;-81
2022/03/09 04:55:18;;;;;;;15.27;10.52;;;;;;;;;;4950279;28;20132;-81
2022/03/09 04:57:44;;;;;;;16.17;10.93;;;;;;;;;;4968302;28;20039;-81
2022/03/09 05:00:10;;;;;;;19.38;11.27;;;;;;;;;;4942629;28;20039;-80
2022/03/09 05:02:36;;;;;;;16.45;10.15;;;;;;;;;;4959803;28;20419;-81
2022/03/09 05:05:02;;;;;;;17.92;9.70;;;;;;;;;;4931553;28;20066;-80
2022/03/09 05:07:28;;;;;;;14.25;10.00;;;;;;;;;;4941822;28;20031;-81
2022/03/09 05:09:54;;;;;;;16.38;9.27;;;;;;;;;;4957801;28;20094;-81
2022/03/09 05:12:20;;;;;;;16.48;10.43;;;;;;;;;;4949387;28;20388;-81
2022/03/09 05:14:45;;;;;;;19.80;12.00;;;;;;;;;;4946245;28;20129;-81
2022/03/09 05:17:11;;;;;;;23.15;13.48;;;;;;;;;;4975555;28;20059;-81
2022/03/09 05:19:37;;;;;;;21.58;12.35;;;;;;;;;;4955195;28;20043;-81
2022/03/09 05:22:03;;;;;;;18.52;12.35;;;;;;;;;;4942511;28;20066;-81
2022/03/09 05:24:29;;;;;;;17.77;11.32;;;;;;;;;;4954830;28;20043;-81
2022/03/09 05:26:55;;;;;;;17.23;10.43;;;;;;;;;;4948448;28;20515;-80
2022/03/09 05:29:20;;;;;;;15.80;9.60;;;;;;;;;;4959121;28;20507;-81
2022/03/09 05:31:46;;;;;;;16.40;10.52;;;;;;;;;;4971130;28;20062;-81
2022/03/09 05:34:13;;;;;;;16.23;9.73;;;;;;;;;;4945321;28;20051;-80
2022/03/09 05:36:40;;;;;;;13.85;9.18;;;;;;;;;;4977960;28;20460;-81
2022/03/09 05:39:05;;;;;;;17.48;9.70;;;;;;;;;;4987075;28;20051;-80
2022/03/09 05:41:32;;;;;;;12.73;8.88;;;;;;;;;;4946658;28;20138;-80
2022/03/09 05:43:58;;;;;;;14.40;9.57;;;;;;;;;;4945089;28;20496;-81
2022/03/09 05:46:24;;;;;;;13.68;9.52;;;;;;;;;;4948506;28;20039;-80
2022/03/09 05:48:49;;;;;;;13.73;9.00;;;;;;;;;;4948055;28;20598;-80
2022/03/09 05:51:15;;;;;;;17.58;10.13;;;;;;;;;;4957863;28;20038;-81
2022/03/09 05:53:41;;;;;;;14.05;9.75;;;;;;;;;;4946077;28;20055;-81
2022/03/09 05:56:07;;;;;;;19.98;11.18;;;;;;;;;;4944169;28;20453;-81
2022/03/09 05:58:33;;;;;;;19.27;11.18;;;;;;;;;;4939308;28;20582;-81
2022/03/09 06:00:58;;;;;;;20.08;11.32;;;;;;;;;;4945912;28;20047;-80
2022/03/09 06:03:24;;;;;;;17.25;11.65;;;;;;;;;;4929908;28;20043;-81
2022/03/09 06:05:50;;;;;;;19.40;11.40;;;;;;;;;;4929412;28;20043;-81
2022/03/09 06:08:16;;;;;;;15.50;10.35;;;;;;;;;;4942424;28;20134;-81
2022/03/09 06:10:42;;;;;;;19.60;11.95;;;;;;;;;;4942566;28;20520;-81
2022/03/09 06:13:08;;;;;;;21.45;13.52;;;;;;;;;;4946550;28;20063;-81
2022/03/09 06:15:33;;;;;;;27.35;15.60;;;;;;;;;;4963706;28;20043;-81
2022/03/09 06:17:59;;;;;;;34.90;20.05;;;;;;;;;;4965142;28;20181;-81
2022/03/09 06:20:28;;;;;;;47.83;27.42;;;;;;;;;;4932381;28;20412;-81
2022/03/09 06:22:54;;;;;;;33.95;20.30;;;;;;;;;;4953842;28;20042;-80
2022/03/09 06:25:20;;;;;;;25.85;16.58;;;;;;;;;;4951937;28;20500;-81
2022/03/09 06:27:51;;;;;;;23.70;14.85;;;;;;;;;;4924219;28;20114;-81
2022/03/09 06:30:17;;;;;;;20.45;12.68;;;;;;;;;;4936198;28;20378;-81
2022/03/09 06:32:44;;;;;;;18.25;12.38;;;;;;;;;;4959483;28;20077;-81
2022/03/09 06:35:10;;;;;;;22.13;11.45;;;;;;;;;;4942397;28;20043;-81
2022/03/09 06:37:36;;;;;;;21.80;12.65;;;;;;;;;;4955940;28;20059;-81
2022/03/09 06:40:03;;;;;;;21.75;12.25;;;;;;;;;;4947098;28;20036;-81
2022/03/09 06:42:29;;;;;;;20.75;11.75;;;;;;;;;;4954713;28;20134;-81
2022/03/09 06:44:55;;;;;;;22.52;12.95;;;;;;;;;;4932361;28;20045;-81
2022/03/09 06:47:21;;;;;;;22.33;12.65;;;;;;;;;;4963223;28;20123;-81
2022/03/09 06:49:47;;;;;;;23.52;12.20;;;;;;;;;;4947307;28;20067;-81
2022/03/09 06:52:13;;;;;;;20.92;12.02;;;;;;;;;;4931968;28;20073;-81
2022/03/09 06:54:38;;;;;;;19.50;11.60;;;;;;;;;;4954627;28;20035;-81
2022/03/09 06:57:04;;;;;;;17.42;11.13;;;;;;;;;;4952036;28;20047;-81
2022/03/09 06:59:30;;;;;;;16.95;10.52;;;;;;;;;;4966665;28;20409;-81
2022/03/09 07:01:56;;;;;;;19.42;10.70;;;;;;;;;;4944347;28;20048;-81
2022/03/09 07:04:21;;;;;;;17.25;11.50;;;;;;;;;;4961371;28;20528;-81
2022/03/09 07:06:47;;;;;;;19.52;12.43;;;;;;;;;;4969541;28;20039;-81
2022/03/09 07:09:14;;;;;;;18.00;10.77;;;;;;;;;;4951465;28;20059;-81
2022/03/09 07:11:41;;;;;;;17.27;10.48;;;;;;;;;;4957126;28;20562;-81
2022/03/09 07:14:07;;;;;;;18.38;10.93;;;;;;;;;;4951477;28;20393;-81
2022/03/09 07:16:32;;;;;;;14.80;10.77;;;;;;;;;;4944927;28;20040;-81
2022/03/09 07:18:58;;;;;;;14.90;10.88;;;;;;;;;;4953941;28;20075;-81
2022/03/09 07:21:24;;;;;;;15.45;9.68;;;;;;;;;;4941967;28;20063;-78
2022/03/09 07:23:49;;;;;;;13.90;9.10;;;;;;;;;;4963713;28;20213;-79
2022/03/09 07:26:15;;;;;;;14.50;8.90;;;;;;;;;;4951207;28;20035;-82
2022/03/09 07:28:41;;;;;;;13.98;9.38;;;;;;;;;;4939920;28;20050;-82
2022/03/09 07:31:07;;;;;;;13.05;8.75;;;;;;;;;;4951366;28;20043;-82
2022/03/09 07:33:32;;;;;;;18.00;10.48;;;;;;;;;;4959411;28;20440;-83
2022/03/09 07:36:00;;;;;;;16.10;9.60;;;;;;;;;;4952047;28;20156;-83
2022/03/09 07:38:26;;;;;;;12.48;8.70;;;;;;;;;;4953239;28;20034;-82
2022/03/09 07:40:52;;;;;;;13.48;8.68;;;;;;;;;;4953961;28;20049;-82
2022/03/09 07:43:18;;;;;;;14.93;8.80;;;;;;;;;;4950080;28;20072;-82
2022/03/09 07:45:44;;;;;;;14.77;9.43;;;;;;;;;;4966903;28;20090;-82
2022/03/09 07:48:10;;;;;;;16.30;10.02;;;;;;;;;;4965096;28;20058;-82
2022/03/09 07:50:36;;;;;;;16.98;10.38;;;;;;;;;;4960920;28;20043;-82
2022/03/09 07:53:03;;;;;;;13.68;10.50;;;;;;;;;;4951990;28;20056;-82
2022/03/09 07:55:28;;;;;;;16.40;10.10;;;;;;;;;;4935975;28;20035;-82
2022/03/09 07:57:54;;;;;;;15.10;9.23;;;;;;;;;;4960023;28;20117;-81
2022/03/09 08:00:20;;;;;;;14.55;9.85;;;;;;;;;;4983674;28;20457;-83
2022/03/09 08:02:45;;;;;;;15.43;8.85;;;;;;;;;;4947099;28;20046;-81
2022/03/09 08:05:11;;;;;;;12.65;8.38;;;;;;;;;;4951747;28;20521;-82
2022/03/09 08:07:37;;;;;;;11.02;8.60;;;;;;;;;;4948192;28;20031;-82
2022/03/09 08:10:04;;;;;;;13.73;8.80;;;;;;;;;;4974363;28;20512;-82
2022/03/09 08:12:30;;;;;;;15.68;8.20;;;;;;;;;;4951598;28;20035;-82
2022/03/09 08:14:56;;;;;;;15.70;8.55;;;;;;;;;;4967374;28;20546;-82
2022/03/09 08:17:22;;;;;;;13.57;8.65;;;;;;;;;;4955229;28;20067;-82
2022/03/09 08:19:48;;;;;;;12.35;7.93;;;;;;;;;;4950436;28;20492;-82
2022/03/09 08:22:13;;;;;;;10.55;7.07;;;;;;;;;;4952173;28;20049;-82
2022/03/09 08:24:39;;;;;;;13.40;8.38;;;;;;;;;;4968349;28;20055;-82
2022/03/09 08:27:05;;;;;;;10.63;6.85;;;;;;;;;;4958879;28;20499;-82
2022/03/09 08:29:31;;;;;;;10.23;7.20;;;;;;;;;;4956092;28;20132;-82
2022/03/09 08:31:56;;;;;;;10.57;6.95;;;;;;;;;;4951431;28;20134;-82
2022/03/09 08:34:22;;;;;;;9.10;6.38;;;;;;;;;;4966812;28;20085;-83
2022/03/09 08:36:48;;;;;;;8.68;6.40;;;;;;;;;;4956528;28;20042;-82
2022/03/09 08:39:14;;;;;;;11.20;6.00;;;;;;;;;;4944402;28;20048;-82
2022/03/09 08:41:39;;;;;;;8.30;6.13;;;;;;;;;;4943044;28;20053;-83
2022/03/09 08:44:05;;;;;;;10.32;7.05;;;;;;;;;;4957911;28;20054;-85
2022/03/09 08:46:31;;;;;;;10.27;6.22;;;;;;;;;;4938711;28;20039;-82
2022/03/09 08:48:57;;;;;;;10.48;6.85;;;;;;;;;;4934885;28;20050;-81
2022/03/09 08:51:24;;;;;;;9.95;6.28;;;;;;;;;;4945349;28;20051;-81
2022/03/09 08:53:50;;;;;;;10.25;6.78;;;;;;;;;;4948415;28;20039;-81
2022/03/09 08:56:16;;;;;;;11.27;6.75;;;;;;;;;;4979957;28;20054;-81
2022/03/09 08:58:42;;;;;;;10.02;6.95;;;;;;;;;;4953511;28;20488;-82
2022/03/09 09:01:08;;;;;;;9.98;6.82;;;;;;;;;;4957618;28;20058;-81
2022/03/09 09:03:33;;;;;;;9.75;7.15;;;;;;;;;;4965312;28;20046;-79
2022/03/09 09:05:59;;;;;;;12.05;6.60;;;;;;;;;;4955845;28;20401;-79
2022/03/09 09:08:25;;;;;;;9.60;6.90;;;;;;;;;;4965809;28;20395;-79
2022/03/09 09:10:50;;;;;;;11.30;7.68;;;;;;;;;;4950719;28;20134;-79
2022/03/09 09:13:16;;;;;;;10.93;7.18;;;;;;;;;;4965207;28;20043;-82
2022/03/09 09:15:42;;;;;;;10.85;7.38;;;;;;;;;;4949426;28;20392;-81
2022/03/09 09:18:08;;;;;;;13.57;8.68;;;;;;;;;;4965641;28;20066;-82
2022/03/09 09:20:34;;;;;;;15.68;7.70;;;;;;;;;;4965051;28;20042;-82
2022/03/09 09:23:02;;;;;;;11.60;7.82;;;;;;;;;;4944789;28;20053;-82
2022/03/09 09:25:28;;;;;;;12.05;8.23;;;;;;;;;;4944345;28;20515;-82
2022/03/09 09:27:54;;;;;;;12.23;8.02;;;;;;;;;;4964745;28;20130;-79
2022/03/09 09:30:21;;;;;;;11.07;9.07;;;;;;;;;;4964950;28;20039;-79
2022/03/09 09:32:47;;;;;;;12.27;8.65;;;;;;;;;;4963889;28;20102;-82
2022/03/09 09:35:14;;;;;;;14.50;8.38;;;;;;;;;;4948799;28;20166;-82
2022/03/09 09:37:39;;;;;;;12.50;8.00;;;;;;;;;;4945865;28;20584;-82
2022/03/09 09:40:07;;;;;;;11.20;7.20;;;;;;;;;;4965125;28;20042;-82
2022/03/09 09:42:33;;;;;;;9.63;6.80;;;;;;;;;;4968292;28;20606;-81
2022/03/09 09:45:00;;;;;;;10.40;7.07;;;;;;;;;;4962331;28;20050;-82
2022/03/09 09:47:29;;;;;;;9.73;7.10;;;;;;;;;;4928425;28;20043;-79
2022/03/09 09:49:58;;;;;;;10.68;6.72;;;;;;;;;;4952787;28;20070;-79
2022/03/09 09:52:27;;;;;;;11.35;7.28;;;;;;;;;;4927468;28;20047;-79
2022/03/09 09:54:55;;;;;;;12.65;7.35;;;;;;;;;;4953819;28;20054;-80
2022/03/09 09:57:22;;;;;;;11.23;6.78;;;;;;;;;;4942346;28;20043;-82
2022/03/09 09:59:47;;;;;;;12.02;7.20;;;;;;;;;;4959437;28;20041;-80
2022/03/09 10:02:13;;;;;;;8.02;6.15;;;;;;;;;;4962181;28;20399;-80
2022/03/09 10:04:40;;;;;;;9.45;5.95;;;;;;;;;;4943941;28;20073;-81
2022/03/09 10:07:06;;;;;;;10.60;6.32;;;;;;;;;;4956043;28;20043;-81
2022/03/09 10:09:39;;;;;;;10.32;6.10;;;;;;;;;;4951954;28;20039;-81
2022/03/09 10:12:06;;;;;;;13.75;8.05;;;;;;;;;;4955788;28;20543;-81
2022/03/09 10:14:53;;;;;;;8.57;6.43;;;;;;;;;;4950450;28;20123;-81
2022/03/09 10:17:29;;;;;;;11.00;6.80;;;;;;;;;;4953914;28;20121;-81
2022/03/09 10:19:58;;;;;;;8.50;5.60;;;;;;;;;;4953616;28;20047;-82
2022/03/09 10:22:32;;;;;;;12.68;6.57;;;;;;;;;;4954503;28;20439;-79
2022/03/09 10:25:16;;;;;;;7.57;5.97;;;;;;;;;;4943784;28;20039;-81
2022/03/09 10:27:47;;;;;;;11.05;8.65;;;;;;;;;;4956893;28;20449;-82
2022/03/09 10:30:16;;;;;;;11.43;7.68;;;;;;;;;;4934241;28;20047;-82
2022/03/09 10:32:52;;;;;;;11.50;7.20;;;;;;;;;;4940249;28;20053;-81
2022/03/09 10:35:21;;;;;;;15.38;8.65;;;;;;;;;;4948976;28;20501;-81
2022/03/09 10:37:48;;;;;;;12.68;8.82;;;;;;;;;;4936122;28;20443;-82
2022/03/09 10:40:17;;;;;;;12.45;9.93;;;;;;;;;;4940874;28;20039;-82
2022/03/09 10:42:44;;;;;;;12.73;9.75;;;;;;;;;;4935491;28;20044;-82
2022/03/09 10:45:10;;;;;;;15.65;10.48;;;;;;;;;;4938710;28;20549;-82
2022/03/09 10:47:42;;;;;;;12.30;9.55;;;;;;;;;;4960253;28;20042;-82
2022/03/09 10:50:13;;;;;;;14.05;9.63;;;;;;;;;;4940987;28;20625;-82
2022/03/09 10:52:52;;;;;;;14.63;9.85;;;;;;;;;;4961446;28;20070;-82
2022/03/09 10:55:35;;;;;;;15.15;9.93;;;;;;;;;;4984523;28;20039;-82
2022/03/09 10:58:21;;;;;;;15.25;10.48;;;;;;;;;;4960583;28;20051;-82
2022/03/09 11:00:52;;;;;;;14.75;10.07;;;;;;;;;;4934528;28;20050;-81
2022/03/09 11:03:20;;;;;;;13.50;10.05;;;;;;;;;;4938737;28;20050;-82
2022/03/09 11:05:54;;;;;;;14.77;10.60;;;;;;;;;;4954476;28;20042;-82
2022/03/09 11:08:22;;;;;;;14.95;11.05;;;;;;;;;;4942463;28;20564;-82
2022/03/09 11:10:50;;;;;;;17.83;10.43;;;;;;;;;;4932716;28;20035;-82
2022/03/09 11:13:17;;;;;;;14.60;10.23;;;;;;;;;;4951209;28;21046;-82
2022/03/09 11:15:44;;;;;;;13.45;9.35;;;;;;;;;;4930993;28;20102;-82
2022/03/09 11:18:19;;;;;;;11.00;9.55;;;;;;;;;;4952378;28;20032;-82
2022/03/09 11:20:45;;;;;;;10.60;8.98;;;;;;;;;;4940666;28;20053;-82
2022/03/09 11:23:13;;;;;;;12.45;9.98;;;;;;;;;;4952360;28;20437;-81
2022/03/09 11:25:41;;;;;;;12.95;9.27;;;;;;;;;;4941149;28;20087;-82
2022/03/09 11:28:08;;;;;;;10.18;9.18;;;;;;;;;;4957741;28;20039;-82
2022/03/09 11:30:33;;;;;;;10.38;9.25;;;;;;;;;;4971841;28;20382;-82
2022/03/09 11:33:01;;;;;;;11.70;8.68;;;;;;;;;;4984892;28;20082;-84
2022/03/09 11:35:37;;;;;;;13.55;8.93;;;;;;;;;;4937614;28;20043;-82
2022/03/09 11:38:32;;;;;;;9.48;7.82;;;;;;;;;;4952212;28;20063;-82
2022/03/09 11:41:13;;;;;;;8.00;7.00;;;;;;;;;;4954700;28;20039;-82
2022/03/09 11:43:39;;;;;;;8.50;7.50;;;;;;;;;;4957299;28;20062;-82
2022/03/09 11:46:06;;;;;;;9.40;7.05;;;;;;;;;;4958909;28;20047;-81
2022/03/09 11:48:51;;;;;;;9.75;7.00;;;;;;;;;;4957842;28;20040;-82
2022/03/09 11:51:17;;;;;;;9.25;6.78;;;;;;;;;;4964564;28;20105;-82
2022/03/09 11:53:46;;;;;;;8.05;6.38;;;;;;;;;;4945026;28;20055;-83
2022/03/09 11:56:28;;;;;;;8.35;6.20;;;;;;;;;;4965889;28;20057;-83
2022/03/09 11:59:14;;;;;;;8.27;7.22;;;;;;;;;;4985234;28;20133;-82
2022/03/09 12:01:56;;;;;;;8.45;6.20;;;;;;;;;;4956908;28;20039;-83
2022/03/09 12:04:40;;;;;;;9.15;6.85;;;;;;;;;;4952777;28;20046;-84
2022/03/09 12:07:06;;;;;;;9.20;6.38;;;;;;;;;;4960866;28;20078;-82
2022/03/09 12:10:01;;;;;;;8.07;6.47;;;;;;;;;;4951176;28;20046;-83
2022/03/09 12:12:28;;;;;;;8.27;6.43;;;;;;;;;;4949237;28;20047;-82
2022/03/09 12:15:10;;;;;;;10.15;6.38;;;;;;;;;;4943385;28;20099;-82
2022/03/09 12:17:39;;;;;;;8.25;6.10;;;;;;;;;;4949726;28;20051;-82
2022/03/09 12:20:25;;;;;;;6.32;5.47;;;;;;;;;;4958647;28;20038;-81
2022/03/09 12:22:57;;;;;;;;;;;;;;;;;;4947646;28;20170;-82
2022/03/09 12:25:42;;;;;;;8.80;5.60;;;;;;;;;;4964334;28;19972;-82
2022/03/09 12:28:23;;;;;;;8.50;5.70;;;;;;;;;;4950420;28;20058;-83
2022/03/09 12:30:56;;;;;;;9.00;5.90;;;;;;;;;;4947959;28;20090;-82
2022/03/09 12:33:31;;;;;;;7.57;5.65;;;;;;;;;;4947096;28;20043;-83
2022/03/09 12:36:10;;;;;;;7.65;5.85;;;;;;;;;;4950256;28;20046;-82
2022/03/09 12:38:40;;;;;;;10.40;6.35;;;;;;;;;;4969400;28;20043;-82
2022/03/09 12:41:26;;;;;;;10.38;6.55;;;;;;;;;;4938166;28;20038;-82
2022/03/09 12:43:53;;;;;;;7.47;5.88;;;;;;;;;;4960005;28;20035;-83
2022/03/09 12:46:20;;;;;;;9.15;5.90;;;;;;;;;;4962538;28;20039;-83
2022/03/09 12:48:45;;;;;;;7.97;5.60;;;;;;;;;;4932566;28;20598;-83
2022/03/09 12:51:11;;;;;;;7.40;5.45;;;;;;;;;;4969974;28;20039;-83
2022/03/09 12:53:37;;;;;;;8.05;5.90;;;;;;;;;;4961414;28;20468;-82
2022/03/09 12:56:21;;;;;;;8.93;5.97;;;;;;;;;;4943475;28;20121;-82
2022/03/09 12:58:47;;;;;;;7.63;5.07;;;;;;;;;;4963086;28;20043;-83
2022/03/09 13:01:14;;;;;;;7.07;5.03;;;;;;;;;;4934764;28;20139;-82
2022/03/09 13:03:41;;;;;;;8.73;6.07;;;;;;;;;;4950159;28;20050;-83
2022/03/09 13:06:26;;;;;;;8.65;5.60;;;;;;;;;;4959469;28;20047;-81
2022/03/09 13:08:52;;;;;;;9.93;5.68;;;;;;;;;;4946733;28;20046;-82
2022/03/09 13:11:31;;;;;;;7.88;5.63;;;;;;;;;;4965235;28;20050;-82
2022/03/09 13:13:58;;;;;;;8.45;5.88;;;;;;;;;;4964657;28;20698;-82
2022/03/09 13:16:26;;;;;;;6.88;5.10;;;;;;;;;;4949019;28;20043;-81
2022/03/09 13:19:00;;;;;;;8.50;6.00;;;;;;;;;;4953934;28;20522;-82
2022/03/09 13:21:30;;;;;;;7.78;5.72;;;;;;;;;;4950277;28;20057;-82
2022/03/09 13:23:58;;;;;;;8.25;5.70;;;;;;;;;;4945767;28;20039;-82
2022/03/09 13:26:26;;;;;;;8.25;5.63;;;;;;;;;;4953617;28;20523;-81
2022/03/09 13:28:57;;;;;;;8.30;5.78;;;;;;;;;;4965447;28;20043;-82
2022/03/09 13:31:23;;;;;;;6.70;5.63;;;;;;;;;;4970798;28;20385;-82
2022/03/09 13:33:50;;;;;;;8.57;5.78;;;;;;;;;;4984282;28;20035;-82
2022/03/09 13:36:18;;;;;;;6.68;5.38;;;;;;;;;;4950951;28;20042;-82
2022/03/09 13:38:55;;;;;;;7.72;5.63;;;;;;;;;;4954642;28;20031;-82
2022/03/09 13:41:20;;;;;;;6.57;5.40;;;;;;;;;;4945490;28;20043;-82
2022/03/09 13:43:47;;;;;;;6.13;5.50;;;;;;;;;;4949154;28;20045;-82
2022/03/09 13:46:14;;;;;;;6.90;5.57;;;;;;;;;;4937875;28;20520;-82
2022/03/09 13:48:40;;;;;;;7.05;5.72;;;;;;;;;;4944209;28;20047;-81
2022/03/09 13:51:07;;;;;;;7.72;5.78;;;;;;;;;;4931243;28;20046;-82
2022/03/09 13:53:36;;;;;;;8.15;6.00;;;;;;;;;;4950767;28;20357;-80
2022/03/09 13:56:03;;;;;;;6.40;5.63;;;;;;;;;;4957481;28;20057;-80
2022/03/09 13:58:38;;;;;;;9.30;5.57;;;;;;;;;;4947929;28;20046;-80
2022/03/09 14:01:06;;;;;;;10.93;5.55;;;;;;;;;;4947244;28;20055;-80
2022/03/09 14:03:53;;;;;;;7.03;5.28;;;;;;;;;;4948129;28;20290;-81
2022/03/09 14:06:19;;;;;;;7.65;5.97;;;;;;;;;;4948086;28;20058;-80
2022/03/09 14:08:47;;;;;;;6.35;5.03;;;;;;;;;;4964013;28;20126;-81
2022/03/09 14:11:20;;;;;;;8.38;5.13;;;;;;;;;;4964965;28;20069;-80
2022/03/09 14:14:03;;;;;;;8.90;5.20;;;;;;;;;;4948740;28;20530;-80
2022/03/09 14:16:31;;;;;;;9.38;5.88;;;;;;;;;;4965203;28;20070;-80
2022/03/09 14:18:57;;;;;;;7.10;5.65;;;;;;;;;;4951836;28;20089;-81
2022/03/09 14:21:23;;;;;;;6.78;5.22;;;;;;;;;;4933468;28;20058;-81
2022/03/09 14:23:50;;;;;;;6.30;5.65;;;;;;;;;;4948265;28;20041;-81
2022/03/09 14:26:16;;;;;;;7.15;6.00;;;;;;;;;;4937513;28;20047;-81
2022/03/09 14:28:42;;;;;;;8.05;6.30;;;;;;;;;;4957887;28;20500;-81
2022/03/09 14:31:08;;;;;;;8.93;6.25;;;;;;;;;;4935128;28;20049;-82